createdAt,value
2019-06-21T00:00:14.420Z,15.76
2019-06-21T00:02:43.006Z,15.72
2019-06-21T00:05:09.825Z,15.63
2019-06-21T00:07:36.503Z,15.57
2019-06-21T00:10:03.431Z,15.55
2019-06-21T00:12:30.202Z,15.58
2019-06-21T00:14:57.027Z,15.56
2019-06-21T00:17:23.811Z,15.57
2019-06-21T00:19:50.500Z,15.58
2019-06-21T00:22:17.429Z,15.54
2019-06-21T00:24:44.201Z,15.52
2019-06-21T00:27:10.987Z,15.46
2019-06-21T00:29:37.805Z,15.43
2019-06-21T00:32:04.704Z,15.39
2019-06-21T00:34:31.477Z,15.40
2019-06-21T00:36:58.276Z,15.38
2019-06-21T00:39:25.090Z,15.36
2019-06-21T00:41:51.935Z,15.31
2019-06-21T00:44:18.743Z,15.32
2019-06-21T00:46:45.597Z,15.35
2019-06-21T00:49:12.372Z,15.32
2019-06-21T00:51:39.162Z,15.31
2019-06-21T00:54:05.945Z,15.38
2019-06-21T00:56:32.644Z,15.35
2019-06-21T00:58:59.369Z,15.29
2019-06-21T01:01:26.054Z,15.33
2019-06-21T01:03:52.842Z,15.26
2019-06-21T01:06:19.727Z,15.28
2019-06-21T01:08:47.641Z,15.26
2019-06-21T01:11:14.412Z,15.30
2019-06-21T01:13:41.302Z,15.16
2019-06-21T01:16:08.186Z,15.13
2019-06-21T01:18:35.863Z,15.13
2019-06-21T01:21:02.864Z,15.19
2019-06-21T01:23:29.638Z,15.19
2019-06-21T01:25:56.516Z,15.18
2019-06-21T01:28:23.227Z,15.18
2019-06-21T01:30:49.974Z,15.17
2019-06-21T01:33:16.755Z,15.20
2019-06-21T01:35:43.536Z,15.13
2019-06-21T01:38:16.497Z,15.07
2019-06-21T01:40:40.137Z,14.99
2019-06-21T01:43:07.001Z,14.96
2019-06-21T01:45:33.779Z,14.92
2019-06-21T01:48:00.555Z,14.93
2019-06-21T01:50:27.332Z,14.94
2019-06-21T01:52:55.252Z,14.90
2019-06-21T01:55:22.454Z,14.85
2019-06-21T01:57:49.303Z,14.72
2019-06-21T02:00:17.994Z,14.64
2019-06-21T02:02:44.913Z,14.58
2019-06-21T02:05:13.904Z,14.54
2019-06-21T02:07:40.775Z,14.53
2019-06-21T02:10:07.946Z,14.52
2019-06-21T02:12:34.762Z,14.54
2019-06-21T02:15:01.679Z,14.55
2019-06-21T02:17:28.939Z,14.56
2019-06-21T02:19:55.617Z,14.55
2019-06-21T02:22:22.358Z,14.55
2019-06-21T02:24:49.131Z,14.57
2019-06-21T02:27:16.882Z,14.52
2019-06-21T02:29:43.579Z,14.46
2019-06-21T02:32:10.656Z,14.45
2019-06-21T02:34:37.539Z,14.40
2019-06-21T02:37:04.311Z,14.36
2019-06-21T02:39:31.082Z,14.31
2019-06-21T02:41:57.850Z,14.25
2019-06-21T02:44:24.708Z,14.23
2019-06-21T02:46:51.500Z,14.25
2019-06-21T02:49:18.385Z,14.19
2019-06-21T02:51:45.065Z,14.17
2019-06-21T02:54:12.867Z,14.13
2019-06-21T02:56:39.635Z,14.08
2019-06-21T02:59:06.508Z,14.05
2019-06-21T03:01:34.050Z,14.00
2019-06-21T03:04:00.835Z,14.05
2019-06-21T03:06:27.793Z,14.21
2019-06-21T03:09:13.767Z,14.19
2019-06-21T03:11:23.247Z,14.15
2019-06-21T03:13:49.957Z,14.06
2019-06-21T03:16:16.681Z,13.99
2019-06-21T03:18:44.375Z,13.97
2019-06-21T03:21:12.251Z,13.98
2019-06-21T03:23:39.123Z,14.11
2019-06-21T03:26:05.960Z,14.18
2019-06-21T03:28:32.647Z,14.10
2019-06-21T03:30:59.310Z,14.10
2019-06-21T03:33:25.986Z,14.10
2019-06-21T03:35:52.664Z,14.13
2019-06-21T03:38:19.327Z,14.03
2019-06-21T03:40:46.002Z,13.91
2019-06-21T03:43:13.093Z,13.85
2019-06-21T03:45:40.405Z,13.85
2019-06-21T03:48:07.301Z,13.76
2019-06-21T03:50:51.891Z,13.77
2019-06-21T03:53:18.650Z,13.83
2019-06-21T03:55:45.429Z,13.83
2019-06-21T03:58:12.231Z,13.84
2019-06-21T04:00:39.005Z,13.89
2019-06-21T04:03:05.808Z,13.87
2019-06-21T04:05:32.556Z,13.92
2019-06-21T04:07:59.247Z,14.00
2019-06-21T04:10:27.022Z,13.99
2019-06-21T04:12:53.717Z,14.00
2019-06-21T04:15:20.471Z,14.11
2019-06-21T04:17:47.145Z,14.09
2019-06-21T04:20:14.014Z,14.16
2019-06-21T04:22:40.707Z,14.22
2019-06-21T04:25:07.736Z,14.22
2019-06-21T04:27:34.490Z,14.23
2019-06-21T04:30:01.171Z,14.23
2019-06-21T04:32:27.917Z,14.20
2019-06-21T04:34:54.613Z,14.17
2019-06-21T04:37:21.269Z,14.26
2019-06-21T04:39:49.160Z,14.33
2019-06-21T04:42:16.936Z,14.37
2019-06-21T04:44:43.685Z,14.37
2019-06-21T04:47:10.474Z,14.40
2019-06-21T04:49:37.228Z,14.46
2019-06-21T04:52:03.990Z,14.43
2019-06-21T04:54:30.709Z,14.49
2019-06-21T04:56:57.421Z,14.58
2019-06-21T04:59:24.204Z,14.70
2019-06-21T05:01:50.999Z,14.71
2019-06-21T05:04:17.668Z,14.76
2019-06-21T05:06:44.364Z,14.81
2019-06-21T05:09:11.229Z,14.81
2019-06-21T05:11:38.000Z,14.87
2019-06-21T05:14:04.787Z,14.92
2019-06-21T05:16:31.462Z,14.91
2019-06-21T05:18:58.135Z,15.00
2019-06-21T05:21:24.900Z,15.02
2019-06-21T05:23:51.683Z,15.13
2019-06-21T05:26:18.462Z,15.14
2019-06-21T05:28:46.141Z,15.21
2019-06-21T05:31:13.102Z,15.26
2019-06-21T05:33:39.850Z,15.28
2019-06-21T05:36:06.535Z,15.29
2019-06-21T05:38:33.252Z,15.31
2019-06-21T05:40:59.885Z,15.37
2019-06-21T05:43:26.558Z,15.45
2019-06-21T05:45:53.602Z,15.55
2019-06-21T05:48:32.728Z,15.56
2019-06-21T05:50:59.932Z,15.54
2019-06-21T05:53:26.860Z,15.73
2019-06-21T05:55:53.645Z,15.74
2019-06-21T05:58:20.439Z,15.74
2019-06-21T06:00:48.909Z,15.79
2019-06-21T06:03:15.786Z,15.86
2019-06-21T06:05:43.690Z,15.83
2019-06-21T06:08:10.465Z,15.98
2019-06-21T06:10:37.386Z,16.03
2019-06-21T06:13:04.179Z,16.02
2019-06-21T06:15:30.871Z,16.06
2019-06-21T06:17:57.710Z,16.19
2019-06-21T06:20:24.526Z,16.23
2019-06-21T06:22:51.317Z,16.33
2019-06-21T06:25:19.665Z,16.35
2019-06-21T06:27:46.387Z,16.51
2019-06-21T06:30:13.560Z,16.59
2019-06-21T06:32:40.359Z,16.54
2019-06-21T06:35:07.599Z,16.52
2019-06-21T06:37:34.457Z,16.58
2019-06-21T06:40:01.218Z,16.54
2019-06-21T06:42:27.953Z,16.61
2019-06-21T06:44:55.333Z,16.72
2019-06-21T06:47:22.146Z,16.68
2019-06-21T06:49:48.954Z,16.81
2019-06-21T06:52:15.744Z,16.88
2019-06-21T06:54:42.440Z,16.95
2019-06-21T06:57:09.133Z,16.98
2019-06-21T06:59:35.803Z,16.96
2019-06-21T07:02:02.712Z,16.84
2019-06-21T07:04:29.371Z,16.90
2019-06-21T07:06:56.061Z,17.02
2019-06-21T07:09:22.816Z,17.24
2019-06-21T07:11:49.611Z,17.31
2019-06-21T07:14:16.565Z,17.34
2019-06-21T07:16:43.334Z,17.16
2019-06-21T07:19:10.026Z,17.15
2019-06-21T07:21:36.871Z,17.31
2019-06-21T07:24:03.763Z,17.20
2019-06-21T07:26:30.511Z,17.37
2019-06-21T07:28:57.299Z,17.53
2019-06-21T07:31:24.079Z,17.67
2019-06-21T07:33:50.768Z,17.81
2019-06-21T07:36:17.538Z,17.81
2019-06-21T07:38:44.349Z,17.79
2019-06-21T07:41:11.036Z,17.95
2019-06-21T07:43:37.830Z,17.86
2019-06-21T07:46:04.610Z,17.79
2019-06-21T07:48:31.304Z,17.85
2019-06-21T07:50:58.486Z,17.96
2019-06-21T07:53:25.163Z,17.86
2019-06-21T07:55:51.859Z,17.88
2019-06-21T07:58:18.666Z,17.93
2019-06-21T08:00:45.363Z,17.74
2019-06-21T08:03:12.140Z,17.71
2019-06-21T08:05:38.945Z,17.52
2019-06-21T08:08:05.840Z,17.49
2019-06-21T08:10:32.662Z,17.69
2019-06-21T08:12:59.470Z,17.92
2019-06-21T08:15:27.319Z,18.17
2019-06-21T08:17:54.010Z,18.13
2019-06-21T08:20:20.808Z,18.21
2019-06-21T08:22:47.489Z,18.13
2019-06-21T08:25:14.302Z,17.93
2019-06-21T08:27:41.089Z,17.96
2019-06-21T08:30:08.273Z,18.15
2019-06-21T08:32:37.803Z,18.67
2019-06-21T08:35:04.290Z,18.82
2019-06-21T08:37:30.983Z,18.53
2019-06-21T08:39:57.805Z,18.56
2019-06-21T08:42:36.117Z,18.65
2019-06-21T08:44:53.195Z,19.04
2019-06-21T08:47:20.063Z,19.10
2019-06-21T08:49:46.915Z,19.25
2019-06-21T08:52:15.190Z,19.37
2019-06-21T08:54:43.359Z,19.56
2019-06-21T08:57:10.607Z,19.35
2019-06-21T08:59:38.821Z,19.47
2019-06-21T09:02:07.006Z,19.31
2019-06-21T09:04:34.400Z,19.31
2019-06-21T09:07:01.180Z,19.33
2019-06-21T09:09:27.870Z,19.23
2019-06-21T09:11:54.602Z,19.10
2019-06-21T09:14:21.292Z,18.96
2019-06-21T09:16:47.986Z,18.93
2019-06-21T09:19:15.660Z,19.31
2019-06-21T09:21:42.426Z,19.27
2019-06-21T09:24:09.227Z,18.91
2019-06-21T09:26:36.018Z,18.67
2019-06-21T09:29:05.729Z,18.89
2019-06-21T09:31:31.663Z,19.15
2019-06-21T09:33:58.337Z,19.60
2019-06-21T09:36:25.129Z,19.78
2019-06-21T09:38:52.055Z,19.72
2019-06-21T09:41:18.749Z,19.58
2019-06-21T09:43:45.534Z,19.71
2019-06-21T09:46:13.019Z,19.97
2019-06-21T09:48:39.958Z,19.86
2019-06-21T09:51:09.777Z,20.12
2019-06-21T09:53:35.532Z,20.26
2019-06-21T09:56:04.028Z,20.25
2019-06-21T09:58:30.844Z,20.51
2019-06-21T10:00:57.504Z,20.32
2019-06-21T10:03:24.382Z,20.43
2019-06-21T10:05:51.466Z,20.19
2019-06-21T10:08:19.269Z,20.39
2019-06-21T10:10:46.040Z,20.65
2019-06-21T10:13:27.142Z,20.24
2019-06-21T10:15:41.540Z,20.05
2019-06-21T10:18:08.259Z,20.78
2019-06-21T10:20:35.141Z,20.39
2019-06-21T10:23:04.971Z,19.80
2019-06-21T10:25:31.755Z,20.06
2019-06-21T10:28:00.451Z,20.42
2019-06-21T10:30:27.341Z,20.32
2019-06-21T10:32:54.016Z,20.52
2019-06-21T10:35:20.809Z,20.58
2019-06-21T10:37:47.620Z,20.53
2019-06-21T10:40:14.613Z,20.34
2019-06-21T10:42:43.217Z,20.21
2019-06-21T10:45:11.795Z,20.18
2019-06-21T10:47:38.567Z,20.17
2019-06-21T10:50:05.689Z,20.19
2019-06-21T10:52:32.490Z,19.86
2019-06-21T10:54:59.504Z,19.94
2019-06-21T10:57:26.371Z,20.49
2019-06-21T10:59:54.476Z,20.71
2019-06-21T11:02:21.695Z,20.70
2019-06-21T11:04:50.511Z,20.49
2019-06-21T11:07:17.016Z,20.30
2019-06-21T11:09:43.713Z,20.23
2019-06-21T11:12:10.395Z,20.27
2019-06-21T11:14:37.208Z,20.18
2019-06-21T11:17:04.049Z,20.12
2019-06-21T11:19:30.715Z,20.01
2019-06-21T11:21:58.999Z,19.77
2019-06-21T11:24:26.076Z,19.75
2019-06-21T11:26:53.795Z,19.80
2019-06-21T11:29:20.550Z,19.87
2019-06-21T11:31:47.256Z,19.92
2019-06-21T11:34:14.079Z,20.13
2019-06-21T11:36:40.716Z,20.02
2019-06-21T11:39:08.632Z,20.05
2019-06-21T11:41:35.501Z,20.07
2019-06-21T11:44:23.767Z,20.00
2019-06-21T11:46:30.889Z,20.06
2019-06-21T11:48:59.972Z,20.09
2019-06-21T11:51:26.143Z,20.08
2019-06-21T11:53:52.821Z,20.13
2019-06-21T11:56:19.615Z,20.12
2019-06-21T11:58:46.433Z,20.09
2019-06-21T12:01:13.150Z,20.38
2019-06-21T12:03:39.942Z,20.70
2019-06-21T12:06:08.242Z,20.79
2019-06-21T12:08:35.323Z,20.71
2019-06-21T12:11:03.036Z,20.67
2019-06-21T12:13:29.954Z,20.51
2019-06-21T12:15:57.532Z,20.50
2019-06-21T12:18:43.788Z,20.52
2019-06-21T12:21:12.265Z,20.59
2019-06-21T12:23:39.147Z,20.62
2019-06-21T12:26:05.985Z,20.81
2019-06-21T12:28:32.718Z,20.78
2019-06-21T12:31:00.970Z,20.69
2019-06-21T12:33:28.114Z,20.71
2019-06-21T12:35:54.909Z,20.71
2019-06-21T12:38:21.619Z,21.06
2019-06-21T12:40:48.297Z,21.27
2019-06-21T12:43:15.080Z,21.99
2019-06-21T12:45:57.601Z,22.18
2019-06-21T12:48:10.754Z,22.37
2019-06-21T12:50:37.750Z,22.91
2019-06-21T12:53:05.925Z,23.08
2019-06-21T12:55:32.805Z,23.11
2019-06-21T12:58:01.218Z,22.17
2019-06-21T13:00:28.182Z,22.07
2019-06-21T13:02:54.878Z,22.03
2019-06-21T13:05:21.673Z,21.78
2019-06-21T13:07:48.552Z,22.08
2019-06-21T13:10:16.572Z,22.00
2019-06-21T13:12:43.245Z,21.62
2019-06-21T13:15:22.853Z,21.52
2019-06-21T13:17:39.265Z,21.24
2019-06-21T13:20:07.043Z,21.33
2019-06-21T13:22:33.962Z,21.39
2019-06-21T13:25:02.152Z,21.32
2019-06-21T13:27:29.239Z,21.41
2019-06-21T13:29:58.297Z,21.31
2019-06-21T13:32:24.589Z,21.16
2019-06-21T13:34:51.263Z,21.07
2019-06-21T13:37:17.989Z,21.09
2019-06-21T13:39:44.683Z,20.97
2019-06-21T13:42:11.475Z,21.22
2019-06-21T13:44:38.206Z,21.76
2019-06-21T13:47:06.688Z,22.55
2019-06-21T13:49:33.591Z,22.71
2019-06-21T13:52:01.396Z,23.19
2019-06-21T13:54:28.953Z,23.25
2019-06-21T13:56:57.070Z,23.49
2019-06-21T13:59:24.339Z,23.75
2019-06-21T14:01:51.434Z,23.61
2019-06-21T14:04:18.205Z,22.87
2019-06-21T14:06:46.110Z,22.20
2019-06-21T14:09:12.795Z,21.76
2019-06-21T14:11:39.597Z,21.39
2019-06-21T14:14:06.408Z,21.55
2019-06-21T14:16:33.234Z,21.36
2019-06-21T14:19:01.828Z,20.99
2019-06-21T14:21:28.753Z,21.09
2019-06-21T14:23:56.307Z,21.01
2019-06-21T14:26:28.520Z,20.87
2019-06-21T14:28:56.378Z,20.80
2019-06-21T14:31:24.904Z,20.33
2019-06-21T14:33:51.586Z,20.47
2019-06-21T14:36:19.909Z,20.39
2019-06-21T14:38:47.149Z,20.41
2019-06-21T14:41:13.809Z,20.11
2019-06-21T14:43:40.599Z,20.29
2019-06-21T14:46:09.550Z,20.28
2019-06-21T14:48:35.893Z,20.28
2019-06-21T14:51:03.199Z,20.53
2019-06-21T14:53:30.357Z,20.96
2019-06-21T14:55:57.971Z,20.87
2019-06-21T14:58:25.707Z,20.51
2019-06-21T15:00:52.597Z,20.31
2019-06-21T15:03:19.406Z,19.94
2019-06-21T15:05:46.205Z,19.71
2019-06-21T15:08:12.901Z,19.31
2019-06-21T15:10:39.671Z,19.19
2019-06-21T15:13:19.271Z,19.08
2019-06-21T15:15:35.138Z,19.02
2019-06-21T15:18:03.110Z,18.81
2019-06-21T15:20:29.904Z,18.93
2019-06-21T15:22:57.707Z,18.99
2019-06-21T15:25:25.214Z,18.87
2019-06-21T15:27:54.959Z,18.85
2019-06-21T15:30:22.453Z,18.76
2019-06-21T15:32:49.149Z,18.74
2019-06-21T15:35:16.002Z,18.76
2019-06-21T15:37:42.837Z,18.78
2019-06-21T15:40:10.088Z,18.46
2019-06-21T15:42:36.844Z,18.40
2019-06-21T15:45:04.548Z,18.32
2019-06-21T15:47:31.506Z,18.25
2019-06-21T15:49:59.994Z,18.14
2019-06-21T15:52:26.870Z,18.12
2019-06-21T15:54:54.998Z,18.23
2019-06-21T15:57:22.305Z,18.24
2019-06-21T15:59:48.977Z,17.90
2019-06-21T16:02:15.755Z,17.72
2019-06-21T16:04:42.461Z,17.79
2019-06-21T16:07:09.150Z,17.71
2019-06-21T16:09:35.826Z,17.47
2019-06-21T16:12:02.636Z,17.34
2019-06-21T16:14:30.328Z,17.18
2019-06-21T16:16:57.217Z,17.03
2019-06-21T16:19:23.900Z,16.93
2019-06-21T16:21:50.605Z,16.85
2019-06-21T16:24:17.274Z,16.81
2019-06-21T16:26:44.061Z,16.77
2019-06-21T16:29:10.761Z,16.74
2019-06-21T16:31:37.459Z,16.62
2019-06-21T16:34:04.278Z,16.62
2019-06-21T16:36:31.031Z,16.84
2019-06-21T16:38:57.800Z,16.90
2019-06-21T16:41:24.591Z,16.87
2019-06-21T16:43:51.259Z,16.82
2019-06-21T16:46:18.035Z,16.77
2019-06-21T16:48:44.727Z,16.68
2019-06-21T16:51:11.414Z,16.81
2019-06-21T16:53:38.101Z,16.76
2019-06-21T16:56:04.817Z,16.82
2019-06-21T16:58:31.489Z,16.89
2019-06-21T17:01:01.710Z,16.94
2019-06-21T17:03:27.023Z,16.85
2019-06-21T17:05:53.911Z,17.09
2019-06-21T17:08:20.596Z,17.14
2019-06-21T17:10:47.392Z,17.18
2019-06-21T17:13:14.093Z,17.46
2019-06-21T17:15:41.483Z,17.52
2019-06-21T17:18:08.187Z,17.69
2019-06-21T17:20:35.130Z,17.68
2019-06-21T17:23:01.938Z,17.71
2019-06-21T17:25:33.515Z,17.44
2019-06-21T17:28:00.833Z,17.42
2019-06-21T17:30:27.626Z,17.42
2019-06-21T17:32:54.451Z,17.29
2019-06-21T17:35:22.333Z,17.21
2019-06-21T17:37:50.313Z,17.40
2019-06-21T17:40:17.143Z,17.33
2019-06-21T17:42:44.018Z,17.33
2019-06-21T17:45:11.235Z,17.30
2019-06-21T17:47:39.145Z,17.34
2019-06-21T17:50:06.651Z,17.44
2019-06-21T17:52:33.430Z,17.44
2019-06-21T17:55:00.249Z,17.58
2019-06-21T17:57:27.027Z,17.42
2019-06-21T17:59:53.851Z,17.27
2019-06-21T18:06:07.746Z,17.16
2019-06-21T18:08:34.438Z,17.23
2019-06-21T18:11:01.226Z,17.25
2019-06-21T18:13:28.037Z,17.25
2019-06-21T18:15:54.827Z,17.10
2019-06-21T18:18:21.532Z,16.94
2019-06-21T18:20:48.225Z,17.00
2019-06-21T18:23:15.010Z,16.90
2019-06-21T18:25:41.717Z,17.00
2019-06-21T18:28:08.530Z,16.91
2019-06-21T18:30:36.437Z,16.89
2019-06-21T18:33:04.507Z,16.84
2019-06-21T18:35:31.287Z,16.84
2019-06-21T18:37:58.098Z,16.77
2019-06-21T18:40:25.785Z,16.73
2019-06-21T18:42:52.479Z,16.76
2019-06-21T18:45:19.374Z,16.70
2019-06-21T18:47:46.092Z,16.84
2019-06-21T18:50:12.960Z,17.01
2019-06-21T18:52:39.647Z,17.04
2019-06-21T18:55:06.477Z,17.00
2019-06-21T18:57:33.182Z,16.99
2019-06-21T18:59:59.866Z,16.92
2019-06-21T19:02:26.662Z,16.86
2019-06-21T19:04:54.531Z,16.88
2019-06-21T19:07:21.215Z,16.90
2019-06-21T19:09:47.906Z,16.94
2019-06-21T19:12:14.613Z,16.93
2019-06-21T19:14:41.307Z,16.84
2019-06-21T19:17:07.985Z,16.77
2019-06-21T19:19:34.785Z,16.72
2019-06-21T19:22:01.473Z,16.71
2019-06-21T19:24:28.289Z,16.79
2019-06-21T19:26:54.974Z,16.97
2019-06-21T19:29:21.783Z,16.99
2019-06-21T19:31:48.486Z,16.92
2019-06-21T19:34:15.177Z,16.95
2019-06-21T19:36:41.955Z,16.80
2019-06-21T19:39:08.762Z,16.82
2019-06-21T19:41:36.754Z,16.72
2019-06-21T19:44:03.535Z,16.94
2019-06-21T19:46:30.236Z,16.91
2019-06-21T19:48:56.921Z,16.80
2019-06-21T19:51:25.662Z,16.74
2019-06-21T19:53:52.384Z,16.82
2019-06-21T19:56:19.137Z,16.95
2019-06-21T19:58:45.857Z,16.83
2019-06-21T20:01:12.746Z,16.87
2019-06-21T20:03:39.452Z,16.85
2019-06-21T20:06:06.146Z,16.61
2019-06-21T20:08:33.774Z,16.59
2019-06-21T20:11:00.470Z,16.57
2019-06-21T20:13:27.187Z,16.43
2019-06-21T20:15:53.987Z,16.60
2019-06-21T20:18:20.771Z,16.58
2019-06-21T20:20:47.499Z,16.55
2019-06-21T20:23:14.191Z,16.57
2019-06-21T20:25:40.973Z,16.49
2019-06-21T20:28:07.660Z,16.40
2019-06-21T20:30:34.336Z,16.56
2019-06-21T20:33:01.142Z,16.59
2019-06-21T20:35:27.822Z,16.35
2019-06-21T20:37:54.493Z,16.20
2019-06-21T20:40:21.481Z,16.21
2019-06-21T20:42:48.209Z,16.25
2019-06-21T20:45:15.753Z,16.19
2019-06-21T20:47:42.775Z,16.19
2019-06-21T20:50:09.671Z,16.20
2019-06-21T20:52:36.854Z,16.18
2019-06-21T20:55:04.227Z,16.10
2019-06-21T20:57:31.100Z,16.18
2019-06-21T20:59:58.089Z,16.18
2019-06-21T21:02:24.812Z,16.05
2019-06-21T21:04:51.559Z,16.09
2019-06-21T21:07:18.493Z,16.02
2019-06-21T21:09:45.303Z,15.99
2019-06-21T21:12:11.996Z,15.87
2019-06-21T21:14:38.675Z,15.84
2019-06-21T21:17:05.362Z,15.85
2019-06-21T21:19:32.055Z,15.78
2019-06-21T21:21:58.884Z,15.66
2019-06-21T21:24:25.575Z,15.51
2019-06-21T21:26:52.260Z,15.44
2019-06-21T21:29:18.957Z,15.51
2019-06-21T21:31:45.740Z,15.57
2019-06-21T21:34:12.639Z,15.65
2019-06-21T21:36:39.448Z,15.62
2019-06-21T21:39:06.464Z,15.74
2019-06-21T21:41:35.131Z,15.65
2019-06-21T21:44:01.891Z,15.61
2019-06-21T21:46:28.609Z,15.64
2019-06-21T21:48:55.274Z,15.63
2019-06-21T21:51:22.305Z,15.51
2019-06-21T21:53:50.225Z,15.39
2019-06-21T21:56:16.894Z,15.33
2019-06-21T21:58:43.764Z,15.25
2019-06-21T22:01:11.655Z,15.15
2019-06-21T22:03:40.507Z,15.19
2019-06-21T22:06:07.190Z,15.20
2019-06-21T22:08:34.333Z,15.04
2019-06-21T22:11:01.255Z,14.91
2019-06-21T22:13:34.826Z,14.77
2019-06-21T22:16:02.612Z,14.63
2019-06-21T22:18:29.446Z,14.62
2019-06-21T22:20:56.219Z,14.61
2019-06-21T22:23:22.995Z,14.54
2019-06-21T22:25:49.667Z,14.50
2019-06-21T22:28:16.478Z,14.45
2019-06-21T22:30:43.119Z,14.27
2019-06-21T22:33:09.813Z,14.14
2019-06-21T22:35:36.493Z,14.12
2019-06-21T22:38:03.271Z,14.04
2019-06-21T22:40:30.029Z,14.04
2019-06-21T22:42:56.815Z,13.99
2019-06-21T22:45:23.579Z,13.92
2019-06-21T22:47:50.242Z,13.88
2019-06-21T22:50:18.421Z,13.91
2019-06-21T22:52:45.315Z,13.87
2019-06-21T22:55:12.095Z,13.85
2019-06-21T22:57:38.788Z,13.78
2019-06-21T23:00:06.564Z,13.74
2019-06-21T23:02:35.034Z,13.79
2019-06-21T23:05:01.913Z,13.80
2019-06-21T23:07:28.601Z,13.76
2019-06-21T23:09:55.313Z,13.75
2019-06-21T23:12:22.069Z,13.67
2019-06-21T23:14:48.872Z,13.68
2019-06-21T23:17:15.551Z,13.68
2019-06-21T23:19:42.422Z,13.71
2019-06-21T23:22:09.073Z,13.70
2019-06-21T23:24:41.049Z,13.71
2019-06-21T23:27:07.722Z,13.72
2019-06-21T23:29:34.398Z,13.62
2019-06-21T23:32:01.084Z,13.66
2019-06-21T23:34:28.021Z,13.77
2019-06-21T23:36:54.853Z,13.74
2019-06-21T23:39:21.640Z,13.60
2019-06-21T23:41:50.343Z,13.76
2019-06-21T23:44:17.101Z,13.66
2019-06-21T23:46:43.876Z,13.67
2019-06-21T23:49:10.571Z,13.64
2019-06-21T23:51:37.327Z,13.69
2019-06-21T23:54:04.227Z,13.60
2019-06-21T23:56:31.161Z,13.45
2019-06-21T23:58:57.915Z,13.53
